createdAt,value
2022-12-05T00:01:51.638Z,32.50
2022-12-05T00:04:19.082Z,31.67
2022-12-05T00:06:46.370Z,32.85
2022-12-05T00:09:14.396Z,34.42
2022-12-05T00:11:45.439Z,32.42
2022-12-05T00:14:14.450Z,32.42
2022-12-05T00:16:44.145Z,31.10
2022-12-05T00:19:14.646Z,34.65
2022-12-05T00:21:43.229Z,30.98
2022-12-05T00:24:14.468Z,30.77
2022-12-05T00:26:42.359Z,29.95
2022-12-05T00:29:09.666Z,30.08
2022-12-05T00:31:37.190Z,30.05
2022-12-05T00:34:04.803Z,30.15
2022-12-05T00:36:36.056Z,30.17
2022-12-05T00:39:07.100Z,32.45
2022-12-05T00:41:34.375Z,32.83
2022-12-05T00:44:03.988Z,35.38
2022-12-05T00:46:35.841Z,32.85
2022-12-05T00:49:05.299Z,34.22
2022-12-05T00:51:36.595Z,31.77
2022-12-05T00:54:06.984Z,30.85
2022-12-05T00:56:34.848Z,31.77
2022-12-05T00:59:02.895Z,32.60
2022-12-05T01:01:37.437Z,30.90
2022-12-05T01:04:11.366Z,32.78
2022-12-05T01:06:39.324Z,34.45
2022-12-05T01:09:07.505Z,35.47
2022-12-05T01:11:40.743Z,36.25
2022-12-05T01:14:13.134Z,35.15
2022-12-05T01:16:42.278Z,37.65
2022-12-05T01:19:13.701Z,33.35
2022-12-05T01:21:41.836Z,34.00
2022-12-05T01:24:10.040Z,35.80
2022-12-05T01:26:37.387Z,37.33
2022-12-05T01:29:05.112Z,35.90
2022-12-05T01:31:36.510Z,36.33
2022-12-05T01:34:06.479Z,39.72
2022-12-05T01:36:34.498Z,36.90
2022-12-05T01:39:03.819Z,38.78
2022-12-05T01:41:34.168Z,40.00
2022-12-05T01:44:06.385Z,36.97
2022-12-05T01:46:36.227Z,42.80
2022-12-05T01:49:14.731Z,45.55
2022-12-05T01:51:46.077Z,33.47
2022-12-05T01:54:16.282Z,34.45
2022-12-05T01:56:49.722Z,34.88
2022-12-05T01:59:18.795Z,35.60
2022-12-05T02:01:46.147Z,31.88
2022-12-05T02:04:14.109Z,28.10
2022-12-05T02:06:41.491Z,36.40
2022-12-05T02:09:08.760Z,26.02
2022-12-05T02:11:54.164Z,24.80
2022-12-05T02:14:51.112Z,29.92
2022-12-05T02:17:31.172Z,29.60
2022-12-05T02:20:17.252Z,23.63
2022-12-05T02:23:22.226Z,24.10
2022-12-05T02:26:22.130Z,19.95
2022-12-05T02:29:01.653Z,28.40
2022-12-05T02:31:35.280Z,20.08
2022-12-05T02:34:23.690Z,21.92
2022-12-05T02:36:56.684Z,19.70
2022-12-05T02:42:20.331Z,23.65
2022-12-05T02:44:56.907Z,23.38
2022-12-05T02:47:28.325Z,22.33
2022-12-05T02:49:57.408Z,21.30
2022-12-05T02:52:35.804Z,20.67
2022-12-05T02:55:04.206Z,21.05
2022-12-05T02:57:32.948Z,20.63
2022-12-05T03:00:00.219Z,20.98
2022-12-05T03:02:31.659Z,22.10
2022-12-05T03:05:14.441Z,20.80
2022-12-05T03:07:45.839Z,24.50
2022-12-05T03:10:15.522Z,22.50
2022-12-05T03:12:48.020Z,17.90
2022-12-05T03:15:32.251Z,17.02
2022-12-05T03:18:13.177Z,20.17
2022-12-05T03:20:48.320Z,23.35
2022-12-05T03:23:19.043Z,18.98
2022-12-05T03:26:01.455Z,20.17
2022-12-05T03:28:45.178Z,17.00
2022-12-05T03:31:17.643Z,16.23
2022-12-05T03:33:49.084Z,16.70
2022-12-05T03:36:23.217Z,17.75
2022-12-05T03:39:07.532Z,20.20
2022-12-05T03:41:43.143Z,19.27
2022-12-05T03:44:24.621Z,19.73
2022-12-05T03:47:12.598Z,19.10
2022-12-05T03:49:56.025Z,15.45
2022-12-05T03:53:18.542Z,13.73
2022-12-05T03:55:41.621Z,15.75
2022-12-05T03:58:19.245Z,14.63
2022-12-05T04:00:49.863Z,16.40
2022-12-05T04:03:27.347Z,19.73
2022-12-05T04:06:01.473Z,13.75
2022-12-05T04:08:36.842Z,22.88
2022-12-05T04:11:09.346Z,19.55
2022-12-05T04:13:44.761Z,24.33
2022-12-05T04:16:35.395Z,16.58
2022-12-05T04:19:09.277Z,17.38
2022-12-05T04:21:41.548Z,18.23
2022-12-05T04:24:36.496Z,23.08
2022-12-05T04:27:11.068Z,20.08
2022-12-05T04:29:45.822Z,22.70
2022-12-05T04:32:14.643Z,25.20
2022-12-05T04:34:45.884Z,17.52
2022-12-05T04:37:20.205Z,23.30
2022-12-05T04:40:09.820Z,20.25
2022-12-05T04:42:38.235Z,19.73
2022-12-05T04:45:08.330Z,19.02
2022-12-05T04:47:44.776Z,27.17
2022-12-05T04:50:16.560Z,20.60
2022-12-05T04:52:51.841Z,20.90
2022-12-05T04:55:26.039Z,24.65
2022-12-05T04:58:12.753Z,18.02
2022-12-05T05:01:09.644Z,26.77
2022-12-05T05:03:45.902Z,22.90
2022-12-05T05:06:14.200Z,23.75
2022-12-05T05:08:56.465Z,16.98
2022-12-05T05:11:24.918Z,22.98
2022-12-05T05:13:52.898Z,32.17
2022-12-05T05:16:26.250Z,23.83
2022-12-05T05:18:53.849Z,25.40
2022-12-05T05:21:28.522Z,21.75
2022-12-05T05:23:56.544Z,24.05
2022-12-05T05:26:24.967Z,24.75
2022-12-05T05:28:52.656Z,34.00
2022-12-05T05:31:20.739Z,30.10
2022-12-05T05:33:52.584Z,30.60
2022-12-05T05:36:21.815Z,25.13
2022-12-05T05:38:54.666Z,25.27
2022-12-05T05:41:24.940Z,20.08
2022-12-05T05:43:53.493Z,21.92
2022-12-05T05:46:23.499Z,22.45
2022-12-05T05:48:52.681Z,22.67
2022-12-05T05:51:20.984Z,22.17
2022-12-05T05:53:48.365Z,25.30
2022-12-05T05:56:21.829Z,26.35
2022-12-05T05:58:57.055Z,27.63
2022-12-05T06:01:24.400Z,24.77
2022-12-05T06:03:51.665Z,27.08
2022-12-05T06:06:20.681Z,23.05
2022-12-05T06:08:48.809Z,24.23
2022-12-05T06:11:25.911Z,21.30
2022-12-05T06:13:55.704Z,24.73
2022-12-05T06:16:24.012Z,31.52
2022-12-05T06:18:52.295Z,24.30
2022-12-05T06:21:19.897Z,27.17
2022-12-05T06:23:47.148Z,23.08
2022-12-05T06:26:17.411Z,27.85
2022-12-05T06:28:44.783Z,26.73
2022-12-05T06:31:14.603Z,21.85
2022-12-05T06:33:41.978Z,27.25
2022-12-05T06:36:12.948Z,26.42
2022-12-05T06:38:42.519Z,18.98
2022-12-05T06:41:19.338Z,20.23
2022-12-05T06:43:46.947Z,21.30
2022-12-05T06:46:15.928Z,19.80
2022-12-05T06:48:43.288Z,20.05
2022-12-05T06:51:12.536Z,23.00
2022-12-05T06:53:40.210Z,19.15
2022-12-05T06:56:14.009Z,22.05
2022-12-05T06:58:42.541Z,18.20
2022-12-05T07:01:35.476Z,17.48
2022-12-05T07:04:03.137Z,18.10
2022-12-05T07:06:30.595Z,14.95
2022-12-05T07:08:57.781Z,21.15
2022-12-05T07:11:25.254Z,15.88
2022-12-05T07:13:52.540Z,21.88
2022-12-05T07:16:19.934Z,17.52
2022-12-05T07:18:47.307Z,16.10
2022-12-05T07:21:17.300Z,22.88
2022-12-05T07:23:46.165Z,18.52
2022-12-05T07:26:15.939Z,21.60
2022-12-05T07:28:43.105Z,21.75
2022-12-05T07:31:13.020Z,22.55
2022-12-05T07:33:40.348Z,31.58
2022-12-05T07:36:13.534Z,23.42
2022-12-05T07:38:41.619Z,19.67
2022-12-05T07:41:22.686Z,28.20
2022-12-05T07:43:52.400Z,19.00
2022-12-05T07:46:20.185Z,20.85
2022-12-05T07:48:51.344Z,29.48
2022-12-05T07:51:19.491Z,25.30
2022-12-05T07:53:47.249Z,18.02
2022-12-05T07:56:17.186Z,22.17
2022-12-05T07:58:46.349Z,27.75
2022-12-05T08:01:15.637Z,19.10
2022-12-05T08:03:43.731Z,17.77
2022-12-05T08:06:15.705Z,15.43
2022-12-05T08:08:43.825Z,21.98
2022-12-05T08:11:14.160Z,16.00
2022-12-05T08:13:42.404Z,19.65
2022-12-05T08:16:27.193Z,17.50
2022-12-05T08:19:00.257Z,14.18
2022-12-05T08:23:55.084Z,21.55
2022-12-05T08:26:25.290Z,17.02
2022-12-05T08:28:58.653Z,16.50
2022-12-05T08:31:30.167Z,17.67
2022-12-05T08:33:59.580Z,14.98
2022-12-05T08:36:28.939Z,17.02
2022-12-05T08:39:00.938Z,19.35
2022-12-05T08:41:30.136Z,19.52
2022-12-05T08:43:58.874Z,25.65
2022-12-05T08:46:26.178Z,16.63
2022-12-05T08:48:53.452Z,18.70
2022-12-05T08:51:20.889Z,24.63
2022-12-05T08:53:48.118Z,21.02
2022-12-05T08:56:15.274Z,19.50
2022-12-05T08:58:42.774Z,17.13
2022-12-05T09:01:15.694Z,14.02
2022-12-05T09:06:21.330Z,18.25
2022-12-05T09:11:24.007Z,21.92
2022-12-05T09:13:53.303Z,22.65
2022-12-05T09:16:23.562Z,19.75
2022-12-05T09:18:52.046Z,21.15
2022-12-05T09:21:21.917Z,21.17
2022-12-05T09:23:50.301Z,14.43
2022-12-05T09:26:20.068Z,23.02
2022-12-05T09:28:47.644Z,17.80
2022-12-05T09:31:17.980Z,18.52
2022-12-05T09:33:50.815Z,24.98
2022-12-05T09:36:20.645Z,18.55
2022-12-05T09:38:48.182Z,17.73
2022-12-05T09:41:55.671Z,18.98
2022-12-05T09:44:48.010Z,23.00
2022-12-05T09:47:27.662Z,18.80
2022-12-05T09:50:18.127Z,17.70
2022-12-05T09:53:22.966Z,18.42
2022-12-05T09:56:11.087Z,14.32
2022-12-05T09:58:50.093Z,19.95
2022-12-05T10:01:42.408Z,19.40
2022-12-05T10:04:28.040Z,22.13
2022-12-05T10:07:10.328Z,24.00
2022-12-05T10:09:55.920Z,18.75
2022-12-05T10:12:32.169Z,22.45
2022-12-05T10:15:22.291Z,19.05
2022-12-05T10:17:56.929Z,16.65
2022-12-05T10:20:36.715Z,18.30
2022-12-05T10:23:23.117Z,19.30
2022-12-05T10:26:06.274Z,19.13
2022-12-05T10:28:48.636Z,18.50
2022-12-05T10:31:21.315Z,19.20
2022-12-05T10:33:58.632Z,23.50
2022-12-05T10:36:26.557Z,20.00
2022-12-05T10:38:56.899Z,17.00
2022-12-05T10:41:24.455Z,20.95
2022-12-05T10:43:51.808Z,22.65
2022-12-05T10:46:18.908Z,19.77
2022-12-05T10:48:46.078Z,22.23
2022-12-05T10:51:26.891Z,22.95
2022-12-05T10:53:54.454Z,21.52
2022-12-05T10:56:43.630Z,15.68
2022-12-05T10:59:14.538Z,24.85
2022-12-05T11:02:01.129Z,23.65
2022-12-05T11:04:30.388Z,19.33
2022-12-05T11:07:05.466Z,25.98
2022-12-05T11:09:39.292Z,21.55
2022-12-05T11:12:16.587Z,20.52
2022-12-05T11:15:21.899Z,20.95
2022-12-05T11:17:50.169Z,17.02
2022-12-05T11:20:18.593Z,25.05
2022-12-05T11:22:49.417Z,16.95
2022-12-05T11:25:28.696Z,20.55
2022-12-05T11:28:01.145Z,22.70
2022-12-05T11:30:29.862Z,24.67
2022-12-05T11:33:20.286Z,18.73
2022-12-05T11:35:49.302Z,14.65
2022-12-05T11:38:19.293Z,17.85
2022-12-05T11:41:01.137Z,27.13
2022-12-05T11:43:43.727Z,20.33
2022-12-05T11:46:35.557Z,21.50
2022-12-05T11:49:20.507Z,21.08
2022-12-05T11:52:16.946Z,18.00
2022-12-05T11:55:06.464Z,18.67
2022-12-05T11:57:43.269Z,23.48
2022-12-05T12:00:16.318Z,20.77
2022-12-05T12:03:15.974Z,18.60
2022-12-05T12:05:50.741Z,14.95
2022-12-05T12:08:58.445Z,21.15
2022-12-05T12:11:34.312Z,16.33
2022-12-05T12:14:18.464Z,20.73
2022-12-05T12:17:03.904Z,13.77
2022-12-05T12:20:00.846Z,23.27
2022-12-05T12:22:57.033Z,24.67
2022-12-05T12:25:43.346Z,17.13
2022-12-05T12:28:45.682Z,20.25
2022-12-05T12:31:12.787Z,19.60
2022-12-05T12:34:13.217Z,21.08
2022-12-05T12:36:53.900Z,15.32
2022-12-05T12:39:39.767Z,16.60
2022-12-05T12:42:52.416Z,17.50
2022-12-05T12:45:35.095Z,16.10
2022-12-05T12:48:29.861Z,14.32
2022-12-05T12:51:00.610Z,20.35
2022-12-05T12:53:50.194Z,19.10
2022-12-05T12:56:23.463Z,20.40
2022-12-05T12:58:52.217Z,19.10
2022-12-05T13:01:28.258Z,23.48
2022-12-05T13:04:19.369Z,20.13
2022-12-05T13:06:57.985Z,17.35
2022-12-05T13:09:33.750Z,23.45
2022-12-05T13:12:07.819Z,19.40
2022-12-05T13:14:39.119Z,19.52
2022-12-05T13:17:08.512Z,19.20
2022-12-05T13:19:53.194Z,23.88
2022-12-05T13:22:24.466Z,22.33
2022-12-05T13:24:53.078Z,23.05
2022-12-05T13:27:22.831Z,15.45
2022-12-05T13:29:55.036Z,17.45
2022-12-05T13:32:32.816Z,25.10
2022-12-05T13:35:09.475Z,21.23
2022-12-05T13:38:02.969Z,22.70
2022-12-05T13:43:29.037Z,19.13
2022-12-05T13:46:11.876Z,26.58
2022-12-05T13:48:42.900Z,21.50
2022-12-05T13:51:32.251Z,19.95
2022-12-05T13:54:19.609Z,19.58
2022-12-05T13:57:06.756Z,23.88
2022-12-05T14:00:09.190Z,20.20
2022-12-05T14:02:42.450Z,19.63
2022-12-05T14:05:17.311Z,21.92
2022-12-05T14:07:46.897Z,23.67
2022-12-05T14:10:20.145Z,20.60
2022-12-05T14:12:57.346Z,24.75
2022-12-05T14:15:32.975Z,26.50
2022-12-05T14:18:02.384Z,23.15
2022-12-05T14:21:10.990Z,22.30
2022-12-05T14:23:53.117Z,22.80
2022-12-05T14:26:32.854Z,19.25
2022-12-05T14:29:25.381Z,22.33
2022-12-05T14:32:03.784Z,21.13
2022-12-05T14:34:33.722Z,18.50
2022-12-05T14:37:15.820Z,23.33
2022-12-05T14:39:46.781Z,17.27
2022-12-05T14:42:40.727Z,18.52
2022-12-05T14:45:30.605Z,19.02
2022-12-05T14:48:00.640Z,21.10
2022-12-05T14:50:34.435Z,18.05
2022-12-05T14:53:20.578Z,18.70
2022-12-05T14:56:20.878Z,16.48
2022-12-05T14:58:50.925Z,25.75
2022-12-05T15:01:26.959Z,20.40
2022-12-05T15:04:05.290Z,22.95
2022-12-05T15:06:35.486Z,29.00
2022-12-05T15:09:35.494Z,24.45
2022-12-05T15:11:55.911Z,29.25
2022-12-05T15:14:31.305Z,22.15
2022-12-05T15:17:01.223Z,19.77
2022-12-05T15:19:45.089Z,25.90
2022-12-05T15:22:15.274Z,28.00
2022-12-05T15:24:42.379Z,19.13
2022-12-05T15:27:11.961Z,27.55
2022-12-05T15:29:41.188Z,17.00
2022-12-05T15:32:14.026Z,28.20
2022-12-05T15:34:52.116Z,24.33
2022-12-05T15:37:44.063Z,18.02
2022-12-05T15:40:14.261Z,21.58
2022-12-05T15:42:46.950Z,25.77
2022-12-05T15:45:14.545Z,27.73
2022-12-05T15:47:54.184Z,19.33
2022-12-05T15:50:24.271Z,16.30
2022-12-05T15:53:04.027Z,26.70
2022-12-05T15:55:44.469Z,24.65
2022-12-05T15:58:29.823Z,22.58
2022-12-05T16:01:04.703Z,26.42
2022-12-05T16:03:58.942Z,31.27
2022-12-05T16:06:38.075Z,20.48
2022-12-05T16:09:24.515Z,15.30
2022-12-05T16:11:55.221Z,28.10
2022-12-05T16:14:51.265Z,26.38
2022-12-05T16:17:17.027Z,19.15
2022-12-05T16:19:44.257Z,19.95
2022-12-05T16:22:17.228Z,21.13
2022-12-05T16:25:04.814Z,18.33
2022-12-05T16:27:39.643Z,22.92
2022-12-05T16:30:27.830Z,19.20
2022-12-05T16:33:15.983Z,20.48
2022-12-05T16:35:48.908Z,24.75
2022-12-05T16:38:31.824Z,16.58
2022-12-05T16:41:08.653Z,21.58
2022-12-05T16:43:37.443Z,23.05
2022-12-05T16:46:08.858Z,19.23
2022-12-05T16:48:36.232Z,18.58
2022-12-05T16:51:39.652Z,22.38
2022-12-05T16:54:09.490Z,18.58
2022-12-05T16:56:36.878Z,21.25
2022-12-05T16:59:06.013Z,15.65
2022-12-05T17:01:38.472Z,14.10
2022-12-05T17:06:33.151Z,20.75
2022-12-05T17:09:00.237Z,15.68
2022-12-05T17:11:30.560Z,25.17
2022-12-05T17:13:58.776Z,27.35
2022-12-05T17:16:26.786Z,20.02
2022-12-05T17:18:54.505Z,17.27
2022-12-05T17:21:24.354Z,19.50
2022-12-05T17:23:52.485Z,17.95
2022-12-05T17:26:21.282Z,15.82
2022-12-05T17:28:49.065Z,18.95
2022-12-05T17:31:18.130Z,13.85
2022-12-05T17:33:46.627Z,17.55
2022-12-05T17:36:14.303Z,14.63
2022-12-05T17:38:42.252Z,21.60
2022-12-05T17:41:19.013Z,20.08
2022-12-05T17:43:46.781Z,18.20
2022-12-05T17:46:17.746Z,16.35
2022-12-05T17:48:45.805Z,21.75
2022-12-05T17:51:14.580Z,13.55
2022-12-05T17:53:43.086Z,15.02
2022-12-05T17:56:10.648Z,14.48
2022-12-05T17:58:37.666Z,16.33
2022-12-05T18:01:05.043Z,10.98
2022-12-05T18:03:33.121Z,15.93
2022-12-05T18:06:04.051Z,15.77
2022-12-05T18:08:34.223Z,14.02
2022-12-05T18:11:01.292Z,23.02
2022-12-05T18:13:28.351Z,14.40
2022-12-05T18:15:59.266Z,13.35
2022-12-05T18:18:27.528Z,13.30
2022-12-05T18:21:12.350Z,12.15
2022-12-05T18:23:40.789Z,9.48
2022-12-05T18:26:17.712Z,13.50
2022-12-05T18:28:46.995Z,14.25
2022-12-05T18:31:16.223Z,10.77
2022-12-05T18:33:46.458Z,16.50
2022-12-05T18:36:17.189Z,9.15
2022-12-05T18:38:52.463Z,13.52
2022-12-05T18:41:20.096Z,12.98
2022-12-05T18:43:47.282Z,12.38
2022-12-05T18:46:14.423Z,12.23
2022-12-05T18:48:44.816Z,10.55
2022-12-05T18:51:20.835Z,16.30
2022-12-05T18:53:53.288Z,11.93
2022-12-05T18:56:23.380Z,8.32
2022-12-05T18:58:56.733Z,15.90
2022-12-05T19:01:24.852Z,11.45
2022-12-05T19:03:52.450Z,12.85
2022-12-05T19:06:25.361Z,11.50
2022-12-05T19:08:57.744Z,12.98
2022-12-05T19:11:28.840Z,12.68
2022-12-05T19:14:01.307Z,10.57
2022-12-05T19:16:30.510Z,16.77
2022-12-05T19:18:59.846Z,11.27
2022-12-05T19:21:29.252Z,16.27
2022-12-05T19:23:57.299Z,14.25
2022-12-05T19:26:25.277Z,19.15
2022-12-05T19:28:52.595Z,14.32
2022-12-05T19:31:22.256Z,12.15
2022-12-05T19:33:54.899Z,15.80
2022-12-05T19:36:26.302Z,8.20
2022-12-05T19:38:55.273Z,12.82
2022-12-05T19:41:25.484Z,12.00
2022-12-05T19:43:53.368Z,13.10
2022-12-05T19:46:27.108Z,16.00
2022-12-05T19:48:56.714Z,12.10
2022-12-05T19:51:24.780Z,13.88
2022-12-05T19:53:52.176Z,19.27
2022-12-05T19:56:24.670Z,21.77
2022-12-05T19:59:02.121Z,16.70
2022-12-05T20:01:35.187Z,16.38
2022-12-05T20:04:05.056Z,16.15
2022-12-05T20:06:38.199Z,10.85
2022-12-05T20:09:06.491Z,11.95
2022-12-05T20:11:34.520Z,12.85
2022-12-05T20:14:02.294Z,15.48
2022-12-05T20:16:29.986Z,15.27
2022-12-05T20:18:59.344Z,11.15
2022-12-05T20:21:30.162Z,14.32
2022-12-05T20:23:59.141Z,11.93
2022-12-05T20:26:29.542Z,15.85
2022-12-05T20:28:58.714Z,14.10
2022-12-05T20:31:28.798Z,13.73
2022-12-05T20:33:56.242Z,13.85
2022-12-05T20:36:26.258Z,18.27
2022-12-05T20:39:02.829Z,11.80
2022-12-05T20:41:30.478Z,9.68
2022-12-05T20:43:59.968Z,16.83
2022-12-05T20:46:28.671Z,9.23
2022-12-05T20:48:56.509Z,12.57
2022-12-05T20:51:32.246Z,14.68
2022-12-05T20:54:00.888Z,14.20
2022-12-05T20:56:31.596Z,12.38
2022-12-05T20:59:01.126Z,16.08
2022-12-05T21:01:34.435Z,15.57
2022-12-05T21:04:03.516Z,19.35
2022-12-05T21:06:33.533Z,18.05
2022-12-05T21:09:01.450Z,15.05
2022-12-05T21:11:29.833Z,14.98
2022-12-05T21:14:00.270Z,10.80
2022-12-05T21:16:28.051Z,16.45
2022-12-05T21:18:56.310Z,14.85
2022-12-05T21:21:26.355Z,12.00
2022-12-05T21:23:59.913Z,13.52
2022-12-05T21:26:30.346Z,15.10
2022-12-05T21:28:59.126Z,10.98
2022-12-05T21:31:27.974Z,12.20
2022-12-05T21:33:58.164Z,13.18
2022-12-05T21:36:28.012Z,10.93
2022-12-05T21:38:56.800Z,14.55
2022-12-05T21:41:25.214Z,12.88
2022-12-05T21:43:55.476Z,8.25
2022-12-05T21:46:27.390Z,11.55
2022-12-05T21:48:55.244Z,12.07
2022-12-05T21:51:25.563Z,9.07
2022-12-05T21:53:53.253Z,7.82
2022-12-05T21:56:25.721Z,8.73
2022-12-05T21:58:53.302Z,11.25
2022-12-05T22:01:26.663Z,12.00
2022-12-05T22:03:56.138Z,16.42
2022-12-05T22:06:23.385Z,8.80
2022-12-05T22:08:50.580Z,10.35
2022-12-05T22:11:20.574Z,14.55
2022-12-05T22:13:49.071Z,7.43
2022-12-05T22:16:17.342Z,14.77
2022-12-05T22:18:46.173Z,13.02
2022-12-05T22:21:20.574Z,16.15
2022-12-05T22:23:49.478Z,16.95
2022-12-05T22:26:21.145Z,17.08
2022-12-05T22:28:50.928Z,8.85
2022-12-05T22:31:20.544Z,12.45
2022-12-05T22:33:48.648Z,10.63
2022-12-05T22:36:17.862Z,14.73
2022-12-05T22:38:47.364Z,17.02
2022-12-05T22:41:21.166Z,13.50
2022-12-05T22:43:50.088Z,19.45
2022-12-05T22:46:19.656Z,13.10
2022-12-05T22:48:48.727Z,9.95
2022-12-05T22:51:17.059Z,18.98
2022-12-05T22:53:44.480Z,12.73
2022-12-05T22:56:17.036Z,8.52
2022-12-05T22:58:45.518Z,9.10
2022-12-05T23:01:24.292Z,12.52
2022-12-05T23:03:57.550Z,12.35
2022-12-05T23:06:25.843Z,8.48
2022-12-05T23:08:53.925Z,10.70
2022-12-05T23:11:21.824Z,10.07
2022-12-05T23:13:49.868Z,9.15
2022-12-05T23:16:23.501Z,5.45
2022-12-05T23:18:55.976Z,7.60
2022-12-05T23:21:30.878Z,10.07
2022-12-05T23:24:00.829Z,8.10
2022-12-05T23:26:31.275Z,7.35
2022-12-05T23:28:58.864Z,8.15
2022-12-05T23:31:26.465Z,7.18
2022-12-05T23:33:56.124Z,6.45
2022-12-05T23:36:25.813Z,11.23
2022-12-05T23:38:53.961Z,11.90
2022-12-05T23:41:23.422Z,6.13
2022-12-05T23:43:51.753Z,11.52
2022-12-05T23:46:22.666Z,7.35
2022-12-05T23:48:50.623Z,6.78
2022-12-05T23:51:21.201Z,10.23
2022-12-05T23:53:55.973Z,6.00
2022-12-05T23:56:26.672Z,4.30
2022-12-05T23:58:56.017Z,6.03
